createdAt,value
2019-01-31T00:00:41.435Z,71.87
2019-01-31T00:03:37.955Z,74.33
2019-01-31T00:06:26.316Z,77.83
2019-01-31T00:09:27.915Z,72.83
2019-01-31T00:12:30.519Z,71.63
2019-01-31T00:15:17.364Z,71.57
2019-01-31T00:18:18.745Z,65.67
2019-01-31T00:21:03.285Z,61.40
2019-01-31T00:24:15.654Z,64.97
2019-01-31T00:27:24.960Z,68.87
2019-01-31T00:30:29.443Z,69.30
2019-01-31T00:33:42.689Z,67.77
2019-01-31T00:37:07.993Z,66.63
2019-01-31T00:40:05.551Z,62.60
2019-01-31T00:43:09.558Z,62.53
2019-01-31T00:46:21.357Z,63.97
2019-01-31T00:49:37.679Z,62.27
2019-01-31T00:52:29.267Z,64.40
2019-01-31T00:55:15.983Z,63.27
2019-01-31T00:58:10.025Z,60.63
2019-01-31T01:01:05.538Z,63.00
2019-01-31T01:04:04.317Z,64.50
2019-01-31T01:07:09.968Z,65.93
2019-01-31T01:09:53.669Z,66.73
2019-01-31T01:13:02.331Z,63.33
2019-01-31T01:16:12.930Z,62.37
2019-01-31T01:19:22.233Z,60.97
2019-01-31T01:22:37.312Z,60.20
2019-01-31T01:25:48.332Z,60.37
2019-01-31T01:28:44.496Z,64.30
2019-01-31T01:31:33.250Z,63.97
2019-01-31T01:34:33.396Z,60.47
2019-01-31T01:37:39.682Z,60.37
2019-01-31T01:40:42.003Z,60.97
2019-01-31T01:43:45.419Z,58.83
2019-01-31T01:46:35.339Z,59.73
2019-01-31T01:49:25.820Z,59.47
2019-01-31T01:52:17.112Z,60.67
2019-01-31T01:55:33.715Z,61.30
2019-01-31T01:58:31.862Z,62.03
2019-01-31T02:01:51.815Z,62.17
2019-01-31T02:04:44.526Z,73.70
2019-01-31T02:07:40.161Z,83.63
2019-01-31T02:11:07.712Z,100.97
2019-01-31T02:14:20.553Z,91.53
2019-01-31T02:16:58.275Z,85.20
2019-01-31T02:19:58.612Z,107.60
2019-01-31T02:22:49.437Z,118.07
2019-01-31T02:25:46.375Z,107.00
2019-01-31T02:28:45.928Z,104.00
2019-01-31T02:31:42.160Z,90.43
2019-01-31T02:34:42.289Z,73.73
2019-01-31T02:37:39.912Z,71.10
2019-01-31T02:40:41.016Z,70.13
2019-01-31T02:43:56.155Z,72.10
2019-01-31T02:47:06.669Z,74.27
2019-01-31T02:50:03.482Z,76.60
2019-01-31T02:53:18.339Z,77.30
2019-01-31T02:56:17.879Z,80.13
2019-01-31T02:59:12.075Z,79.83
2019-01-31T03:01:58.675Z,79.73
2019-01-31T03:04:44.205Z,82.77
2019-01-31T03:08:09.452Z,82.37
2019-01-31T03:11:05.975Z,85.00
2019-01-31T03:13:53.446Z,85.40
2019-01-31T03:17:15.909Z,86.37
2019-01-31T03:20:33.587Z,86.33
2019-01-31T03:23:45.432Z,86.57
2019-01-31T03:26:37.191Z,85.27
2019-01-31T03:29:36.595Z,84.50
2019-01-31T03:32:52.069Z,86.63
2019-01-31T03:35:52.371Z,87.83
2019-01-31T03:38:33.660Z,85.57
2019-01-31T03:41:26.002Z,89.67
2019-01-31T03:44:15.737Z,93.30
2019-01-31T03:47:33.925Z,100.67
2019-01-31T03:50:53.566Z,97.23
2019-01-31T03:54:09.568Z,93.87
2019-01-31T03:56:58.619Z,86.03
2019-01-31T03:59:35.892Z,87.90
2019-01-31T04:02:55.243Z,90.57
2019-01-31T04:05:43.482Z,98.97
2019-01-31T04:08:12.848Z,93.00
2019-01-31T04:10:42.458Z,95.13
2019-01-31T04:13:12.078Z,94.43
2019-01-31T04:15:42.024Z,97.27
2019-01-31T04:18:12.305Z,98.17
2019-01-31T04:20:41.747Z,93.77
2019-01-31T04:23:12.087Z,94.37
2019-01-31T04:25:41.575Z,97.67
2019-01-31T04:28:11.348Z,95.93
2019-01-31T04:30:41.976Z,96.97
2019-01-31T04:33:14.325Z,96.60
2019-01-31T04:35:44.110Z,97.83
2019-01-31T04:38:14.530Z,102.50
2019-01-31T04:40:43.896Z,97.83
2019-01-31T04:43:13.672Z,102.40
2019-01-31T04:45:50.339Z,111.17
2019-01-31T04:48:20.153Z,128.03
2019-01-31T04:50:49.848Z,171.80
2019-01-31T04:53:20.432Z,158.90
2019-01-31T04:55:50.678Z,170.27
2019-01-31T04:58:20.387Z,149.03
2019-01-31T05:00:50.195Z,133.00
2019-01-31T05:03:19.661Z,131.53
2019-01-31T05:05:49.107Z,124.77
2019-01-31T05:08:18.635Z,117.17
2019-01-31T05:10:48.352Z,116.83
2019-01-31T05:13:18.987Z,112.53
2019-01-31T05:15:48.367Z,115.67
2019-01-31T05:18:18.074Z,121.90
2019-01-31T05:20:47.529Z,117.67
2019-01-31T05:23:17.208Z,113.03
2019-01-31T05:25:47.915Z,116.83
2019-01-31T05:28:17.396Z,110.10
2019-01-31T05:30:46.792Z,112.83
2019-01-31T05:33:16.387Z,109.63
2019-01-31T05:35:46.082Z,113.67
2019-01-31T05:38:17.368Z,113.60
2019-01-31T05:40:55.254Z,117.03
2019-01-31T05:43:19.384Z,118.33
2019-01-31T05:45:49.672Z,120.20
2019-01-31T05:48:18.958Z,115.60
2019-01-31T05:51:09.208Z,117.43
2019-01-31T05:53:38.827Z,117.53
2019-01-31T05:56:08.263Z,123.07
2019-01-31T05:58:37.663Z,126.87
2019-01-31T06:01:07.038Z,122.33
2019-01-31T06:03:36.337Z,124.83
2019-01-31T06:06:05.756Z,125.83
2019-01-31T06:08:35.130Z,123.57
2019-01-31T06:11:07.471Z,125.57
2019-01-31T06:13:36.888Z,124.03
2019-01-31T06:16:06.938Z,119.67
2019-01-31T06:18:36.287Z,125.23
2019-01-31T06:21:05.588Z,124.00
2019-01-31T06:23:35.683Z,126.23
2019-01-31T06:26:04.966Z,127.60
2019-01-31T06:28:34.282Z,149.40
2019-01-31T06:31:03.635Z,128.00
2019-01-31T06:33:32.932Z,113.77
2019-01-31T06:36:02.271Z,112.63
2019-01-31T06:38:31.581Z,105.07
2019-01-31T06:41:00.858Z,106.93
2019-01-31T06:43:30.188Z,102.67
2019-01-31T06:46:01.639Z,102.93
2019-01-31T06:48:33.883Z,103.47
2019-01-31T06:51:02.050Z,100.57
2019-01-31T06:53:31.380Z,103.33
2019-01-31T06:56:01.223Z,104.77
2019-01-31T06:58:32.423Z,102.33
2019-01-31T07:01:04.634Z,105.50
2019-01-31T07:03:39.623Z,103.30
2019-01-31T07:06:09.063Z,95.77
2019-01-31T07:08:38.981Z,99.07
2019-01-31T07:11:08.463Z,105.60
2019-01-31T07:13:41.335Z,112.97
2019-01-31T07:16:10.895Z,253.40
2019-01-31T07:18:40.385Z,125.90
2019-01-31T07:21:10.930Z,104.47
2019-01-31T07:23:40.761Z,101.93
2019-01-31T07:26:10.619Z,100.53
2019-01-31T07:28:41.589Z,94.10
2019-01-31T07:31:13.697Z,90.20
2019-01-31T07:33:42.992Z,86.60
2019-01-31T07:36:12.372Z,93.87
2019-01-31T07:38:41.652Z,96.57
2019-01-31T07:41:11.229Z,84.93
2019-01-31T07:43:40.810Z,86.80
2019-01-31T07:46:10.143Z,87.23
2019-01-31T07:48:41.155Z,88.90
2019-01-31T07:51:10.502Z,93.50
2019-01-31T07:53:39.748Z,93.60
2019-01-31T07:56:09.051Z,90.87
2019-01-31T07:58:40.611Z,91.87
2019-01-31T08:01:10.959Z,95.87
2019-01-31T08:03:40.901Z,96.70
2019-01-31T08:21:20.809Z,98.67
2019-01-31T08:23:50.249Z,94.27
2019-01-31T08:26:19.807Z,118.73
2019-01-31T08:28:49.242Z,94.60
2019-01-31T08:31:18.729Z,90.00
2019-01-31T08:33:48.278Z,92.07
2019-01-31T08:36:17.772Z,94.63
2019-01-31T08:38:47.260Z,92.17
2019-01-31T08:41:16.682Z,94.57
2019-01-31T08:43:46.684Z,96.47
2019-01-31T08:46:16.224Z,97.37
2019-01-31T08:48:45.646Z,87.77
2019-01-31T08:51:15.213Z,82.27
2019-01-31T08:53:44.567Z,81.60
2019-01-31T08:56:14.119Z,81.73
2019-01-31T08:58:43.490Z,85.17
2019-01-31T09:01:12.855Z,88.43
2019-01-31T09:03:42.319Z,88.40
2019-01-31T09:06:11.807Z,89.80
2019-01-31T09:08:41.382Z,96.80
2019-01-31T09:11:10.638Z,98.03
2019-01-31T09:13:40.078Z,90.63
2019-01-31T09:16:09.589Z,85.80
2019-01-31T09:18:38.886Z,87.13
2019-01-31T09:21:26.649Z,85.80
2019-01-31T09:24:27.606Z,83.97
2019-01-31T09:27:45.732Z,85.87
2019-01-31T09:31:09.224Z,82.50
2019-01-31T09:34:09.598Z,79.30
2019-01-31T09:37:20.029Z,77.00
2019-01-31T09:40:39.970Z,72.23
2019-01-31T09:43:28.255Z,73.90
2019-01-31T09:46:29.790Z,69.77
2019-01-31T09:49:43.448Z,72.37
2019-01-31T09:52:29.003Z,70.97
2019-01-31T09:55:45.022Z,70.70
2019-01-31T09:58:34.144Z,66.43
2019-01-31T10:01:31.239Z,65.67
2019-01-31T10:04:50.650Z,65.27
2019-01-31T10:07:55.933Z,65.50
2019-01-31T10:10:59.920Z,66.63
2019-01-31T10:14:08.562Z,64.20
2019-01-31T10:17:20.453Z,64.97
2019-01-31T10:20:09.661Z,63.30
2019-01-31T10:23:11.315Z,65.87
2019-01-31T10:26:43.574Z,64.93
2019-01-31T10:29:30.630Z,67.33
2019-01-31T10:32:18.908Z,66.97
2019-01-31T10:35:31.940Z,66.27
2019-01-31T10:38:30.399Z,66.53
2019-01-31T10:41:40.408Z,65.73
2019-01-31T10:44:52.790Z,63.83
2019-01-31T10:47:53.570Z,71.87
2019-01-31T10:50:58.929Z,68.90
2019-01-31T10:54:09.585Z,63.93
2019-01-31T10:57:13.839Z,68.27
2019-01-31T11:00:19.456Z,66.33
2019-01-31T11:03:29.203Z,68.10
2019-01-31T11:06:45.820Z,87.43
2019-01-31T11:09:46.018Z,65.90
2019-01-31T11:13:18.947Z,67.83
2019-01-31T11:16:20.823Z,71.73
2019-01-31T11:19:40.163Z,65.90
2019-01-31T11:22:46.806Z,62.13
2019-01-31T11:25:42.607Z,61.77
2019-01-31T11:29:08.633Z,64.53
2019-01-31T11:32:09.356Z,60.73
2019-01-31T11:35:34.907Z,58.57
2019-01-31T11:38:24.911Z,53.70
2019-01-31T11:41:34.848Z,54.37
2019-01-31T11:44:19.475Z,53.57
2019-01-31T11:47:05.301Z,55.10
2019-01-31T11:49:58.353Z,47.40
2019-01-31T11:53:12.003Z,51.63
2019-01-31T11:56:09.165Z,53.80
2019-01-31T11:59:04.145Z,54.93
2019-01-31T12:01:34.297Z,54.70
2019-01-31T12:04:16.029Z,53.30
2019-01-31T12:06:45.502Z,51.77
2019-01-31T12:09:19.820Z,51.97
2019-01-31T12:11:49.744Z,53.87
2019-01-31T12:14:19.455Z,53.10
2019-01-31T12:16:48.950Z,51.60
2019-01-31T12:19:18.255Z,50.93
2019-01-31T12:21:48.243Z,49.27
2019-01-31T12:24:18.225Z,47.87
2019-01-31T12:26:47.602Z,48.10
2019-01-31T12:29:16.940Z,50.47
2019-01-31T12:31:46.393Z,50.57
2019-01-31T12:34:15.907Z,53.60
2019-01-31T12:36:45.363Z,54.50
2019-01-31T12:39:14.801Z,54.60
2019-01-31T12:41:44.368Z,58.90
2019-01-31T12:44:14.086Z,56.53
2019-01-31T12:46:43.736Z,57.03
2019-01-31T12:49:13.359Z,56.13
2019-01-31T12:51:43.044Z,54.77
2019-01-31T12:54:12.453Z,58.13
2019-01-31T12:56:42.180Z,54.83
2019-01-31T12:59:11.437Z,49.97
2019-01-31T13:01:41.001Z,54.20
2019-01-31T13:04:10.654Z,56.03
2019-01-31T13:06:40.184Z,54.33
2019-01-31T13:09:11.307Z,56.53
2019-01-31T13:11:40.728Z,59.50
2019-01-31T13:14:10.312Z,54.77
2019-01-31T13:16:40.303Z,58.00
2019-01-31T13:19:10.783Z,57.17
2019-01-31T13:21:40.282Z,58.40
2019-01-31T13:24:09.739Z,55.67
2019-01-31T13:26:39.726Z,58.63
2019-01-31T13:29:09.415Z,56.00
2019-01-31T13:31:39.007Z,58.60
2019-01-31T13:34:08.895Z,57.20
2019-01-31T13:36:38.399Z,56.43
2019-01-31T13:39:14.831Z,61.10
2019-01-31T13:41:44.226Z,58.80
2019-01-31T13:44:13.838Z,56.43
2019-01-31T13:46:43.429Z,56.53
2019-01-31T13:49:12.878Z,57.40
2019-01-31T13:51:42.367Z,57.33
2019-01-31T13:54:11.935Z,56.77
2019-01-31T13:56:45.554Z,61.43
2019-01-31T13:59:12.565Z,56.53
2019-01-31T14:01:41.929Z,59.33
2019-01-31T14:04:12.100Z,58.33
2019-01-31T14:06:41.517Z,61.13
2019-01-31T14:09:11.244Z,61.50
2019-01-31T14:11:40.919Z,63.40
2019-01-31T14:14:10.417Z,65.40
2019-01-31T14:16:47.099Z,64.07
2019-01-31T14:19:11.186Z,66.13
2019-01-31T14:21:40.581Z,62.93
2019-01-31T14:24:10.095Z,66.20
2019-01-31T14:26:39.531Z,65.47
2019-01-31T14:29:09.171Z,64.37
2019-01-31T14:31:38.497Z,63.93
2019-01-31T14:34:09.210Z,70.03
2019-01-31T14:36:39.015Z,61.47
2019-01-31T14:39:10.287Z,64.50
2019-01-31T14:41:39.630Z,65.97
2019-01-31T14:44:19.904Z,68.67
2019-01-31T14:46:40.261Z,70.43
2019-01-31T14:49:09.619Z,70.70
2019-01-31T14:51:38.952Z,74.67
2019-01-31T14:54:08.365Z,71.60
2019-01-31T14:56:37.658Z,75.40
2019-01-31T14:59:07.584Z,71.73
2019-01-31T15:01:36.985Z,73.97
2019-01-31T15:04:06.390Z,86.63
2019-01-31T15:06:35.678Z,89.93
2019-01-31T15:09:08.766Z,96.87
2019-01-31T15:11:38.254Z,87.20
2019-01-31T15:14:07.844Z,97.17
2019-01-31T15:16:37.164Z,112.30
2019-01-31T15:19:06.588Z,118.43
2019-01-31T15:21:36.062Z,100.53
2019-01-31T15:24:06.124Z,92.43
2019-01-31T15:26:35.518Z,88.50
2019-01-31T15:29:05.060Z,90.73
2019-01-31T15:31:34.630Z,89.00
2019-01-31T15:34:04.051Z,86.17
2019-01-31T15:36:33.694Z,81.23
2019-01-31T15:39:03.351Z,83.13
2019-01-31T15:41:32.678Z,82.47
2019-01-31T15:44:02.127Z,86.10
2019-01-31T15:46:31.472Z,91.47
2019-01-31T15:49:00.827Z,87.93
2019-01-31T15:51:30.226Z,93.37
2019-01-31T15:53:59.738Z,86.20
2019-01-31T15:56:29.236Z,92.80
2019-01-31T15:58:58.575Z,96.57
2019-01-31T16:01:27.955Z,103.03
2019-01-31T16:03:57.311Z,107.07
2019-01-31T16:06:26.611Z,113.57
2019-01-31T16:08:56.030Z,111.10
2019-01-31T16:11:25.594Z,108.33
2019-01-31T16:13:55.107Z,99.67
2019-01-31T16:16:24.524Z,97.20
2019-01-31T16:18:53.874Z,96.63
2019-01-31T16:21:23.191Z,107.70
2019-01-31T16:23:52.652Z,109.40
2019-01-31T16:26:22.066Z,113.90
2019-01-31T16:28:51.591Z,113.77
2019-01-31T16:31:21.122Z,117.77
2019-01-31T16:33:50.565Z,130.27
2019-01-31T16:36:20.130Z,120.83
2019-01-31T16:38:49.712Z,113.23
2019-01-31T16:41:19.021Z,103.70
2019-01-31T16:43:48.385Z,94.53
2019-01-31T16:46:18.031Z,91.60
2019-01-31T16:48:47.425Z,87.90
2019-01-31T16:51:16.858Z,98.07
2019-01-31T16:53:47.250Z,93.93
2019-01-31T16:56:16.597Z,100.80
2019-01-31T16:58:45.963Z,109.47
2019-01-31T17:01:16.055Z,152.50
2019-01-31T17:03:45.679Z,215.93
2019-01-31T17:06:15.062Z,122.00
2019-01-31T17:08:44.524Z,91.83
2019-01-31T17:11:13.957Z,89.53
2019-01-31T17:13:43.394Z,88.33
2019-01-31T17:16:12.867Z,87.40
2019-01-31T17:18:42.211Z,87.77
2019-01-31T17:21:11.603Z,86.87
2019-01-31T17:23:41.060Z,90.00
2019-01-31T17:26:10.309Z,94.23
2019-01-31T17:28:39.670Z,101.00
2019-01-31T17:31:09.706Z,107.50
2019-01-31T17:33:39.262Z,102.53
2019-01-31T17:36:08.709Z,107.63
2019-01-31T17:38:38.274Z,111.47
2019-01-31T17:41:07.774Z,118.50
2019-01-31T17:43:37.193Z,132.47
2019-01-31T17:46:08.096Z,158.70
2019-01-31T17:48:37.471Z,113.33
2019-01-31T17:51:06.908Z,118.07
2019-01-31T17:53:36.279Z,119.43
2019-01-31T17:56:05.938Z,132.53
2019-01-31T17:58:36.950Z,124.30
2019-01-31T18:03:49.853Z,114.53
2019-01-31T18:06:19.263Z,114.73
2019-01-31T18:08:51.793Z,115.03
2019-01-31T18:11:21.299Z,114.70
2019-01-31T18:13:52.635Z,117.63
2019-01-31T18:16:21.797Z,107.33
2019-01-31T18:18:51.224Z,100.33
2019-01-31T18:21:20.574Z,99.50
2019-01-31T18:23:49.981Z,103.03
2019-01-31T18:26:19.410Z,97.73
2019-01-31T18:28:48.964Z,96.83
2019-01-31T18:31:18.519Z,94.90
2019-01-31T18:33:47.882Z,96.93
2019-01-31T18:36:17.240Z,94.20
2019-01-31T18:38:46.567Z,94.97
2019-01-31T18:41:15.957Z,96.63
2019-01-31T18:43:45.390Z,106.63
2019-01-31T18:46:14.919Z,102.80
2019-01-31T18:48:44.267Z,104.67
2019-01-31T18:51:16.090Z,97.27
2019-01-31T18:53:45.032Z,97.93
2019-01-31T18:56:14.391Z,94.27
2019-01-31T18:58:43.932Z,97.10
2019-01-31T19:01:13.431Z,98.87
2019-01-31T19:03:44.239Z,98.77
2019-01-31T19:06:14.709Z,99.23
2019-01-31T19:08:44.122Z,100.67
2019-01-31T19:11:13.488Z,96.97
2019-01-31T19:13:42.858Z,104.60
2019-01-31T19:16:12.336Z,109.97
2019-01-31T19:18:41.954Z,105.73
2019-01-31T19:21:11.435Z,95.47
2019-01-31T19:23:40.796Z,94.30
2019-01-31T19:26:10.500Z,92.10
2019-01-31T19:28:39.973Z,94.07
2019-01-31T19:31:09.578Z,95.07
2019-01-31T19:33:39.000Z,96.57
2019-01-31T19:36:08.508Z,96.57
2019-01-31T19:38:38.070Z,99.33
2019-01-31T19:41:09.269Z,95.63
2019-01-31T19:43:38.700Z,96.33
2019-01-31T19:46:15.996Z,96.77
2019-01-31T19:48:39.346Z,97.57
2019-01-31T19:51:11.625Z,99.53
2019-01-31T19:53:41.193Z,102.07
2019-01-31T19:56:10.922Z,100.63
2019-01-31T19:58:40.551Z,100.70
2019-01-31T20:01:10.150Z,110.87
2019-01-31T20:03:39.837Z,112.43
2019-01-31T20:06:09.504Z,106.33
2019-01-31T20:08:38.963Z,104.53
2019-01-31T20:11:08.589Z,105.80
2019-01-31T20:13:38.014Z,106.03
2019-01-31T20:16:08.243Z,107.73
2019-01-31T20:18:37.743Z,110.23
2019-01-31T20:21:07.415Z,109.90
2019-01-31T20:23:36.771Z,110.20
2019-01-31T20:26:06.332Z,113.67
2019-01-31T20:28:35.687Z,112.67
2019-01-31T20:31:05.511Z,111.73
2019-01-31T20:33:35.040Z,112.73
2019-01-31T20:36:04.783Z,108.90
2019-01-31T20:38:34.163Z,113.83
2019-01-31T20:41:03.510Z,116.10
2019-01-31T20:43:33.189Z,120.83
2019-01-31T20:46:02.700Z,121.87
2019-01-31T20:48:32.135Z,114.07
2019-01-31T20:51:01.484Z,112.67
2019-01-31T20:53:31.210Z,111.20
2019-01-31T20:56:01.240Z,114.37
2019-01-31T20:58:30.828Z,116.33
2019-01-31T21:01:00.282Z,121.17
2019-01-31T21:03:29.788Z,114.47
2019-01-31T21:05:59.121Z,115.90
2019-01-31T21:08:29.367Z,110.57
2019-01-31T21:10:59.668Z,108.90
2019-01-31T21:13:29.650Z,107.93
2019-01-31T21:15:59.685Z,100.10
2019-01-31T21:18:29.467Z,108.63
2019-01-31T21:20:59.290Z,105.23
2019-01-31T21:23:28.806Z,107.07
2019-01-31T21:25:58.288Z,104.23
2019-01-31T21:28:28.035Z,108.20
2019-01-31T21:30:57.675Z,106.03
2019-01-31T21:33:27.287Z,103.20
2019-01-31T21:35:56.903Z,107.27
2019-01-31T21:38:26.395Z,105.97
2019-01-31T21:40:55.955Z,106.20
2019-01-31T21:43:26.039Z,107.13
2019-01-31T21:45:55.637Z,103.80
2019-01-31T21:48:25.131Z,110.83
2019-01-31T21:50:54.935Z,112.03
2019-01-31T21:53:24.815Z,108.63
2019-01-31T21:55:54.260Z,107.67
2019-01-31T21:58:23.801Z,111.40
2019-01-31T22:00:53.279Z,103.87
2019-01-31T22:03:23.000Z,107.57
2019-01-31T22:05:52.732Z,103.33
2019-01-31T22:08:22.310Z,105.53
2019-01-31T22:10:51.954Z,105.00
2019-01-31T22:13:21.379Z,102.20
2019-01-31T22:15:53.892Z,105.03
2019-01-31T22:18:23.688Z,110.33
2019-01-31T22:20:53.216Z,110.07
2019-01-31T22:23:22.707Z,108.40
2019-01-31T22:25:52.491Z,110.30
2019-01-31T22:28:21.968Z,109.07
2019-01-31T22:30:51.799Z,112.60
2019-01-31T22:33:21.296Z,109.73
2019-01-31T22:35:51.374Z,107.93
2019-01-31T22:38:21.537Z,113.80
2019-01-31T22:40:51.189Z,109.23
2019-01-31T22:43:20.531Z,108.13
2019-01-31T22:48:30.711Z,107.90
2019-01-31T22:51:00.060Z,108.40
2019-01-31T22:53:29.363Z,107.13
2019-01-31T22:55:58.727Z,107.30
2019-01-31T22:58:28.308Z,105.20
2019-01-31T23:01:26.813Z,103.47
2019-01-31T23:03:56.950Z,102.23
2019-01-31T23:06:26.894Z,101.53
2019-01-31T23:08:56.328Z,102.57
2019-01-31T23:11:25.861Z,101.73
2019-01-31T23:13:55.351Z,101.37
2019-01-31T23:16:24.731Z,102.90
2019-01-31T23:18:54.114Z,97.13
2019-01-31T23:21:23.539Z,93.47
2019-01-31T23:23:52.979Z,97.50
2019-01-31T23:26:23.153Z,93.03
2019-01-31T23:28:52.655Z,92.93
2019-01-31T23:31:22.057Z,94.13
2019-01-31T23:33:51.573Z,93.57
2019-01-31T23:36:21.018Z,95.00
2019-01-31T23:38:50.392Z,93.60
2019-01-31T23:41:19.700Z,94.20
2019-01-31T23:43:49.653Z,89.50
2019-01-31T23:46:19.085Z,86.03
2019-01-31T23:48:50.602Z,85.27
2019-01-31T23:51:19.838Z,84.93
2019-01-31T23:53:49.234Z,79.67
2019-01-31T23:56:18.614Z,77.27
2019-01-31T23:58:47.983Z,76.57
